createdAt,value
2018-09-14T00:00:53.247Z,65.90
2018-09-14T00:03:22.612Z,65.60
2018-09-14T00:05:51.204Z,65.40
2018-09-14T00:08:19.509Z,65.50
2018-09-14T00:10:49.047Z,65.40
2018-09-14T00:13:17.365Z,65.50
2018-09-14T00:15:45.662Z,65.50
2018-09-14T00:18:13.987Z,65.70
2018-09-14T00:20:42.273Z,65.90
2018-09-14T00:23:10.572Z,66.10
2018-09-14T00:25:38.839Z,66.10
2018-09-14T00:28:08.191Z,66.00
2018-09-14T00:30:36.489Z,66.20
2018-09-14T00:33:04.833Z,66.20
2018-09-14T00:35:33.123Z,66.20
2018-09-14T00:38:01.413Z,66.30
2018-09-14T00:40:29.737Z,66.30
2018-09-14T00:42:58.045Z,66.30
2018-09-14T00:45:26.419Z,66.30
2018-09-14T00:47:54.718Z,67.00
2018-09-14T00:50:22.993Z,66.10
2018-09-14T00:52:51.281Z,66.20
2018-09-14T00:55:19.577Z,66.00
2018-09-14T00:57:47.883Z,66.00
2018-09-14T01:00:16.186Z,66.20
2018-09-14T01:02:44.482Z,66.20
2018-09-14T01:05:12.787Z,66.30
2018-09-14T01:07:41.089Z,67.10
2018-09-14T01:10:09.393Z,66.40
2018-09-14T01:12:37.653Z,66.20
2018-09-14T01:15:05.954Z,66.40
2018-09-14T01:17:34.294Z,66.40
2018-09-14T01:20:03.727Z,66.30
2018-09-14T01:22:31.961Z,66.40
2018-09-14T01:25:00.249Z,67.00
2018-09-14T01:27:28.545Z,66.40
2018-09-14T01:29:56.825Z,66.40
2018-09-14T01:32:25.106Z,66.50
2018-09-14T01:34:53.410Z,66.30
2018-09-14T01:37:22.726Z,66.40
2018-09-14T01:39:53.202Z,66.30
2018-09-14T01:42:21.567Z,66.40
2018-09-14T01:44:49.862Z,66.40
2018-09-14T01:47:18.245Z,66.20
2018-09-14T01:49:46.591Z,66.40
2018-09-14T01:52:14.967Z,66.20
2018-09-14T01:54:43.270Z,65.90
2018-09-14T01:57:11.584Z,66.00
2018-09-14T01:59:39.900Z,66.00
2018-09-14T02:02:09.218Z,65.90
2018-09-14T02:04:37.578Z,65.50
2018-09-14T02:07:06.903Z,66.00
2018-09-14T02:09:35.227Z,66.00
2018-09-14T02:12:03.597Z,65.90
2018-09-14T02:14:31.910Z,66.00
2018-09-14T02:17:00.278Z,66.10
2018-09-14T02:19:28.666Z,66.00
2018-09-14T02:21:56.982Z,66.80
2018-09-14T02:24:25.306Z,65.70
2018-09-14T02:26:53.613Z,66.30
2018-09-14T02:29:23.002Z,66.40
2018-09-14T02:31:52.363Z,66.50
2018-09-14T02:34:20.675Z,66.50
2018-09-14T02:36:49.115Z,66.60
2018-09-14T02:39:17.434Z,66.60
2018-09-14T02:41:45.927Z,66.70
2018-09-14T02:44:14.263Z,66.60
2018-09-14T02:46:42.555Z,67.20
2018-09-14T02:49:10.911Z,66.10
2018-09-14T02:51:39.216Z,66.10
2018-09-14T02:54:08.162Z,66.00
2018-09-14T02:56:36.475Z,66.10
2018-09-14T02:59:04.874Z,66.00
2018-09-14T03:01:33.186Z,66.70
2018-09-14T03:04:01.582Z,66.00
2018-09-14T03:06:30.926Z,66.90
2018-09-14T03:08:59.251Z,66.50
2018-09-14T03:11:27.619Z,66.50
2018-09-14T03:13:55.934Z,66.60
2018-09-14T03:16:24.251Z,66.70
2018-09-14T03:18:53.654Z,66.90
2018-09-14T03:21:22.001Z,66.60
2018-09-14T03:23:50.294Z,66.60
2018-09-14T03:26:18.620Z,66.50
2018-09-14T03:28:46.881Z,66.40
2018-09-14T03:31:15.202Z,66.30
2018-09-14T03:33:43.470Z,66.20
2018-09-14T03:36:11.782Z,66.50
2018-09-14T03:38:40.194Z,66.40
2018-09-14T03:41:08.508Z,66.20
2018-09-14T03:43:36.831Z,66.20
2018-09-14T03:46:05.594Z,66.50
2018-09-14T03:48:33.918Z,66.40
2018-09-14T03:51:02.214Z,66.20
2018-09-14T03:53:30.530Z,66.40
2018-09-14T03:55:58.865Z,67.10
2018-09-14T03:58:27.230Z,67.30
2018-09-14T04:00:55.531Z,66.60
2018-09-14T04:03:23.971Z,66.90
2018-09-14T04:05:52.277Z,66.60
2018-09-14T04:08:20.610Z,66.70
2018-09-14T04:10:48.923Z,66.70
2018-09-14T04:13:17.242Z,66.70
2018-09-14T04:15:45.570Z,66.70
2018-09-14T04:18:13.846Z,66.80
2018-09-14T04:20:42.270Z,66.80
2018-09-14T04:23:10.638Z,67.50
2018-09-14T04:25:38.990Z,66.90
2018-09-14T04:28:07.306Z,66.70
2018-09-14T04:30:35.794Z,66.40
2018-09-14T04:33:04.210Z,67.10
2018-09-14T04:35:33.530Z,66.40
2018-09-14T04:38:01.921Z,66.30
2018-09-14T04:40:30.210Z,66.80
2018-09-14T04:42:58.538Z,66.90
2018-09-14T04:45:26.913Z,67.10
2018-09-14T04:47:55.220Z,67.40
2018-09-14T04:50:23.926Z,67.80
2018-09-14T04:52:52.237Z,67.80
2018-09-14T04:55:20.586Z,67.20
2018-09-14T04:57:48.910Z,67.10
2018-09-14T05:00:18.255Z,67.10
2018-09-14T05:02:46.598Z,68.00
2018-09-14T05:05:15.915Z,68.00
2018-09-14T05:07:44.304Z,68.10
2018-09-14T05:10:13.606Z,68.20
2018-09-14T05:12:41.957Z,68.00
2018-09-14T05:15:11.289Z,67.80
2018-09-14T05:17:39.635Z,67.70
2018-09-14T05:22:36.005Z,67.20
2018-09-14T05:25:04.388Z,68.10
2018-09-14T05:27:32.823Z,67.80
2018-09-14T05:30:01.190Z,67.30
2018-09-14T05:32:29.477Z,67.80
2018-09-14T05:34:57.794Z,67.80
2018-09-14T05:37:27.118Z,68.10
2018-09-14T05:39:55.450Z,68.00
2018-09-14T05:42:23.769Z,68.20
2018-09-14T05:44:52.080Z,68.00
2018-09-14T05:47:21.404Z,68.10
2018-09-14T05:49:49.715Z,68.20
2018-09-14T05:52:18.018Z,68.00
2018-09-14T05:54:46.366Z,68.20
2018-09-14T05:57:15.725Z,68.30
2018-09-14T05:59:44.037Z,68.60
2018-09-14T06:02:13.377Z,68.80
2018-09-14T06:04:41.746Z,69.10
2018-09-14T06:07:11.850Z,69.00
2018-09-14T06:09:40.994Z,68.70
2018-09-14T06:12:10.030Z,68.70
2018-09-14T06:14:39.056Z,68.80
2018-09-14T06:17:08.195Z,68.00
2018-09-14T06:19:37.238Z,68.10
2018-09-14T06:22:06.429Z,68.70
2018-09-14T06:24:35.426Z,67.80
2018-09-14T06:27:04.582Z,68.60
2018-09-14T06:29:33.430Z,68.30
2018-09-14T06:32:02.713Z,68.30
2018-09-14T06:34:32.704Z,69.10
2018-09-14T06:37:01.026Z,69.00
2018-09-14T06:39:31.410Z,92.20
2018-09-14T06:41:59.743Z,88.30
2018-09-14T06:44:28.041Z,87.90
2018-09-14T06:46:56.362Z,87.60
2018-09-14T06:49:24.730Z,87.00
2018-09-14T06:51:53.047Z,87.80
2018-09-14T06:54:22.447Z,88.00
2018-09-14T06:56:50.746Z,88.50
2018-09-14T06:59:19.081Z,86.90
2018-09-14T07:01:47.452Z,85.80
2018-09-14T07:04:15.820Z,69.50
2018-09-14T07:06:44.258Z,69.00
2018-09-14T07:09:12.556Z,68.40
2018-09-14T07:11:40.946Z,68.40
2018-09-14T07:14:09.303Z,68.70
2018-09-14T07:16:37.680Z,68.50
2018-09-14T07:19:06.010Z,68.10
2018-09-14T07:21:34.322Z,68.50
2018-09-14T07:24:02.684Z,69.30
2018-09-14T07:26:30.983Z,69.30
2018-09-14T07:28:59.536Z,68.50
2018-09-14T07:31:27.805Z,68.40
2018-09-14T07:33:56.106Z,68.20
2018-09-14T07:36:24.552Z,68.50
2018-09-14T07:38:52.838Z,68.60
2018-09-14T07:41:21.237Z,69.00
2018-09-14T07:43:49.538Z,68.50
2018-09-14T07:46:17.952Z,68.50
2018-09-14T07:48:46.265Z,68.10
2018-09-14T07:51:14.670Z,68.40
2018-09-14T07:53:43.078Z,68.60
2018-09-14T07:56:11.402Z,68.60
2018-09-14T07:58:41.839Z,68.30
2018-09-14T08:01:10.201Z,68.10
2018-09-14T08:03:38.510Z,68.00
2018-09-14T08:06:06.877Z,68.00
2018-09-14T08:08:35.179Z,68.00
2018-09-14T08:11:04.483Z,68.10
2018-09-14T08:13:32.926Z,68.20
2018-09-14T08:16:01.233Z,68.20
2018-09-14T08:18:29.651Z,67.90
2018-09-14T08:20:58.029Z,67.80
2018-09-14T08:23:26.378Z,67.40
2018-09-14T08:25:54.694Z,67.30
2018-09-14T08:28:23.057Z,67.60
2018-09-14T08:30:51.382Z,68.00
2018-09-14T08:33:19.692Z,68.30
2018-09-14T08:35:48.082Z,68.20
2018-09-14T08:38:16.418Z,85.60
2018-09-14T08:40:44.857Z,85.20
2018-09-14T08:43:13.169Z,85.10
2018-09-14T08:45:42.763Z,84.40
2018-09-14T08:48:11.142Z,84.20
2018-09-14T08:50:39.403Z,84.70
2018-09-14T08:53:07.649Z,85.50
2018-09-14T08:55:36.105Z,84.90
2018-09-14T08:58:04.601Z,84.90
2018-09-14T09:00:33.010Z,84.90
2018-09-14T09:03:01.293Z,84.80
2018-09-14T09:05:29.582Z,85.00
2018-09-14T09:07:57.848Z,84.90
2018-09-14T09:10:26.214Z,84.70
2018-09-14T09:12:54.517Z,85.00
2018-09-14T09:15:23.910Z,85.00
2018-09-14T09:17:52.209Z,85.70
2018-09-14T09:20:20.434Z,85.90
2018-09-14T09:22:48.724Z,85.70
2018-09-14T09:25:17.062Z,82.50
2018-09-14T09:27:45.383Z,66.10
2018-09-14T09:30:13.697Z,67.40
2018-09-14T09:32:42.099Z,66.70
2018-09-14T09:35:10.568Z,66.70
2018-09-14T09:37:38.910Z,66.50
2018-09-14T09:40:07.226Z,66.30
2018-09-14T09:42:35.703Z,66.50
2018-09-14T09:45:04.035Z,66.50
2018-09-14T09:47:32.483Z,66.40
2018-09-14T09:50:00.786Z,66.40
2018-09-14T09:52:29.207Z,66.40
2018-09-14T09:54:57.465Z,66.10
2018-09-14T09:57:25.785Z,66.10
2018-09-14T09:59:54.201Z,66.30
2018-09-14T10:02:27.823Z,66.20
2018-09-14T10:05:01.567Z,66.30
2018-09-14T10:07:29.948Z,66.70
2018-09-14T10:09:58.287Z,66.40
2018-09-14T10:12:27.665Z,66.00
2018-09-14T10:14:55.971Z,65.80
2018-09-14T10:17:24.267Z,65.70
2018-09-14T10:19:52.574Z,65.40
2018-09-14T10:22:21.909Z,65.20
2018-09-14T10:24:50.200Z,65.40
2018-09-14T10:27:18.531Z,65.70
2018-09-14T10:29:46.842Z,65.30
2018-09-14T10:32:15.185Z,65.60
2018-09-14T10:34:43.494Z,65.20
2018-09-14T10:37:11.817Z,65.50
2018-09-14T10:39:40.129Z,65.30
2018-09-14T10:42:08.397Z,64.80
2018-09-14T10:44:36.718Z,65.00
2018-09-14T10:47:06.037Z,64.90
2018-09-14T10:49:34.353Z,65.30
2018-09-14T10:52:03.695Z,65.30
2018-09-14T10:54:32.170Z,65.00
2018-09-14T10:57:01.560Z,64.50
2018-09-14T10:59:30.126Z,64.80
2018-09-14T11:01:58.505Z,64.60
2018-09-14T11:04:28.805Z,64.60
2018-09-14T11:06:57.101Z,64.70
2018-09-14T11:09:26.392Z,64.60
2018-09-14T11:11:55.729Z,64.70
2018-09-14T11:14:25.118Z,64.60
2018-09-14T11:16:53.468Z,64.70
2018-09-14T11:19:21.824Z,64.40
2018-09-14T11:21:50.147Z,64.90
2018-09-14T11:24:18.453Z,65.20
2018-09-14T11:26:46.819Z,64.90
2018-09-14T11:29:15.190Z,64.50
2018-09-14T11:31:43.570Z,64.50
2018-09-14T11:34:11.910Z,64.70
2018-09-14T11:36:40.262Z,64.60
2018-09-14T11:39:09.622Z,64.20
2018-09-14T11:41:38.213Z,64.60
2018-09-14T11:44:06.669Z,64.30
2018-09-14T11:46:35.021Z,64.10
2018-09-14T11:49:03.370Z,63.90
2018-09-14T11:51:31.718Z,64.40
2018-09-14T11:54:01.105Z,64.40
2018-09-14T11:56:33.490Z,64.30
2018-09-14T11:59:02.837Z,64.20
2018-09-14T12:01:32.365Z,63.80
2018-09-14T12:04:02.079Z,63.90
2018-09-14T12:06:31.506Z,63.70
2018-09-14T12:08:59.882Z,63.80
2018-09-14T12:11:28.323Z,63.50
2018-09-14T12:13:56.677Z,63.80
2018-09-14T12:16:24.959Z,63.20
2018-09-14T12:18:53.276Z,63.20
2018-09-14T12:21:21.601Z,63.50
2018-09-14T12:23:49.907Z,64.10
2018-09-14T12:26:18.267Z,64.90
2018-09-14T12:28:46.749Z,64.20
2018-09-14T12:31:15.094Z,64.40
2018-09-14T12:33:43.497Z,64.00
2018-09-14T12:36:12.037Z,63.70
2018-09-14T12:38:40.526Z,63.90
2018-09-14T12:41:08.986Z,64.00
2018-09-14T12:43:37.344Z,63.90
2018-09-14T12:46:05.753Z,64.10
2018-09-14T12:48:35.876Z,64.20
2018-09-14T12:51:04.346Z,63.60
2018-09-14T12:53:32.689Z,63.50
2018-09-14T12:56:01.093Z,63.50
2018-09-14T12:58:29.425Z,63.70
2018-09-14T13:00:57.799Z,63.80
2018-09-14T13:03:29.061Z,64.10
2018-09-14T13:05:57.406Z,63.90
2018-09-14T13:08:25.708Z,63.70
2018-09-14T13:10:54.074Z,64.00
2018-09-14T13:13:22.386Z,63.90
2018-09-14T13:15:50.718Z,63.40
2018-09-14T13:18:19.040Z,62.90
2018-09-14T13:20:47.329Z,63.20
2018-09-14T13:23:15.653Z,63.00
2018-09-14T13:25:43.976Z,63.20
2018-09-14T13:28:12.357Z,63.00
2018-09-14T13:30:40.677Z,63.10
2018-09-14T13:33:09.002Z,63.40
2018-09-14T13:35:37.327Z,63.50
2018-09-14T13:38:05.744Z,62.90
2018-09-14T13:40:34.098Z,62.60
2018-09-14T13:43:03.457Z,62.90
2018-09-14T13:45:31.785Z,63.30
2018-09-14T13:48:01.133Z,63.20
2018-09-14T13:50:29.482Z,62.00
2018-09-14T13:52:58.880Z,62.20
2018-09-14T13:55:27.117Z,61.60
2018-09-14T13:57:55.473Z,61.70
2018-09-14T14:00:23.808Z,62.10
2018-09-14T14:02:52.185Z,62.00
2018-09-14T14:05:20.567Z,61.10
2018-09-14T14:07:48.922Z,61.30
2018-09-14T14:10:18.393Z,61.10
2018-09-14T14:12:46.724Z,60.80
2018-09-14T14:15:15.137Z,61.10
2018-09-14T14:17:43.527Z,61.80
2018-09-14T14:20:11.786Z,61.80
2018-09-14T14:22:40.130Z,61.80
2018-09-14T14:25:08.422Z,62.10
2018-09-14T14:27:36.805Z,60.90
2018-09-14T14:30:05.162Z,60.70
2018-09-14T14:32:33.482Z,60.20
2018-09-14T14:35:01.829Z,60.00
2018-09-14T14:37:30.292Z,60.70
2018-09-14T14:39:58.679Z,60.90
2018-09-14T14:42:27.029Z,61.20
2018-09-14T14:44:56.766Z,61.00
2018-09-14T14:47:25.106Z,61.60
2018-09-14T14:49:53.434Z,61.80
2018-09-14T14:52:21.787Z,61.50
2018-09-14T14:54:50.090Z,61.80
2018-09-14T14:57:18.457Z,62.00
2018-09-14T14:59:46.794Z,62.00
2018-09-14T15:02:15.117Z,62.00
2018-09-14T15:04:43.488Z,62.20
2018-09-14T15:07:11.839Z,62.80
2018-09-14T15:09:40.214Z,62.40
2018-09-14T15:12:08.513Z,62.20
2018-09-14T15:14:36.876Z,62.40
2018-09-14T15:17:05.251Z,62.10
2018-09-14T15:19:33.571Z,61.70
2018-09-14T15:22:01.902Z,61.90
2018-09-14T15:24:30.222Z,62.10
2018-09-14T15:26:58.578Z,62.10
2018-09-14T15:29:26.894Z,62.40
2018-09-14T15:31:55.221Z,62.50
2018-09-14T15:34:23.649Z,62.50
2018-09-14T15:36:52.013Z,62.70
2018-09-14T15:39:20.384Z,62.60
2018-09-14T15:41:48.746Z,63.00
2018-09-14T15:44:17.071Z,63.00
2018-09-14T15:46:45.409Z,63.20
2018-09-14T15:49:13.764Z,63.20
2018-09-14T15:51:42.114Z,63.20
2018-09-14T15:54:10.469Z,63.20
2018-09-14T15:56:38.799Z,63.20
2018-09-14T15:59:07.120Z,63.30
2018-09-14T16:01:35.479Z,63.30
2018-09-14T16:04:03.796Z,63.30
2018-09-14T16:06:32.126Z,63.60
2018-09-14T16:09:00.431Z,63.40
2018-09-14T16:11:28.775Z,63.40
2018-09-14T16:13:58.113Z,63.30
2018-09-14T16:16:27.202Z,63.40
2018-09-14T16:18:55.618Z,63.40
2018-09-14T16:21:23.914Z,63.50
2018-09-14T16:23:52.260Z,63.50
2018-09-14T16:26:20.842Z,63.50
2018-09-14T16:28:49.407Z,63.50
2018-09-14T16:31:17.761Z,63.50
2018-09-14T16:33:46.096Z,63.60
2018-09-14T16:36:14.497Z,63.30
2018-09-14T16:38:42.858Z,63.40
2018-09-14T16:41:11.261Z,63.30
2018-09-14T16:43:39.592Z,63.40
2018-09-14T16:46:07.932Z,63.50
2018-09-14T16:48:36.269Z,63.70
2018-09-14T16:53:38.363Z,63.70
2018-09-14T16:56:06.972Z,63.80
2018-09-14T16:58:35.319Z,63.50
2018-09-14T17:01:03.650Z,63.70
2018-09-14T17:03:32.083Z,63.80
2018-09-14T17:06:00.394Z,63.80
2018-09-14T17:08:28.742Z,63.80
2018-09-14T17:10:58.102Z,63.80
2018-09-14T17:13:26.442Z,63.80
2018-09-14T17:15:54.798Z,64.00
2018-09-14T17:18:23.166Z,63.90
2018-09-14T17:20:52.830Z,63.90
2018-09-14T17:23:22.728Z,64.00
2018-09-14T17:25:52.998Z,64.00
2018-09-14T17:28:22.483Z,64.00
2018-09-14T17:30:51.235Z,64.10
2018-09-14T17:33:19.731Z,64.20
2018-09-14T17:35:49.073Z,64.30
2018-09-14T17:38:17.525Z,64.20
2018-09-14T17:40:45.754Z,64.10
2018-09-14T17:43:14.352Z,64.00
2018-09-14T17:45:42.851Z,63.40
2018-09-14T17:48:11.165Z,64.70
2018-09-14T17:50:39.538Z,64.00
2018-09-14T17:53:08.847Z,64.10
2018-09-14T17:55:37.182Z,64.10
2018-09-14T17:58:05.599Z,64.10
2018-09-14T18:00:33.879Z,64.20
2018-09-14T18:03:02.259Z,63.70
2018-09-14T18:05:30.590Z,64.50
2018-09-14T18:07:58.990Z,64.50
2018-09-14T18:10:27.401Z,64.50
2018-09-14T18:12:55.747Z,64.50
2018-09-14T18:15:24.090Z,64.50
2018-09-14T18:17:52.410Z,64.80
2018-09-14T18:22:48.881Z,64.20
2018-09-14T18:25:17.513Z,65.10
2018-09-14T18:27:45.932Z,64.50
2018-09-14T18:30:15.274Z,65.00
2018-09-14T18:32:43.606Z,65.00
2018-09-14T18:35:11.974Z,64.90
2018-09-14T18:37:40.358Z,65.20
2018-09-14T18:40:08.719Z,65.10
2018-09-14T18:42:37.116Z,65.10
2018-09-14T18:45:06.509Z,65.80
2018-09-14T18:47:34.869Z,65.00
2018-09-14T18:50:03.233Z,65.10
2018-09-14T18:52:32.076Z,64.80
2018-09-14T18:55:02.213Z,64.70
2018-09-14T18:57:31.377Z,64.70
2018-09-14T19:00:00.648Z,64.80
2018-09-14T19:02:30.500Z,64.70
2018-09-14T19:05:00.665Z,64.70
2018-09-14T19:07:29.859Z,64.70
2018-09-14T19:09:58.874Z,64.70
2018-09-14T19:12:28.002Z,64.70
2018-09-14T19:14:57.290Z,64.70
2018-09-14T19:17:27.156Z,64.60
2018-09-14T19:19:57.182Z,64.70
2018-09-14T19:22:27.213Z,64.40
2018-09-14T19:24:56.243Z,64.30
2018-09-14T19:27:25.215Z,64.30
2018-09-14T19:29:54.255Z,64.20
2018-09-14T19:32:22.600Z,64.10
2018-09-14T19:34:50.906Z,64.10
2018-09-14T19:37:19.256Z,64.00
2018-09-14T19:39:48.166Z,64.00
2018-09-14T19:42:18.212Z,64.10
2018-09-14T19:44:46.663Z,64.10
2018-09-14T19:47:15.579Z,64.20
2018-09-14T19:49:44.631Z,64.30
2018-09-14T19:52:13.733Z,64.40
2018-09-14T19:54:44.485Z,64.40
2018-09-14T19:57:14.691Z,64.50
2018-09-14T19:59:43.929Z,64.70
2018-09-14T20:02:13.082Z,64.60
2018-09-14T20:04:42.264Z,63.90
2018-09-14T20:07:12.435Z,64.70
2018-09-14T20:09:41.576Z,64.60
2018-09-14T20:12:11.638Z,63.90
2018-09-14T20:14:40.337Z,64.50
2018-09-14T20:17:09.722Z,64.40
2018-09-14T20:19:38.158Z,64.50
2018-09-14T20:22:06.977Z,64.60
2018-09-14T20:24:35.285Z,64.60
2018-09-14T20:27:03.633Z,64.70
2018-09-14T20:29:32.058Z,64.10
2018-09-14T20:32:00.474Z,64.70
2018-09-14T20:34:28.810Z,64.80
2018-09-14T20:36:57.186Z,64.80
2018-09-14T20:39:26.588Z,64.70
2018-09-14T20:41:54.913Z,64.40
2018-09-14T20:44:23.246Z,64.20
2018-09-14T20:46:51.609Z,64.00
2018-09-14T20:49:19.975Z,64.10
2018-09-14T20:51:48.374Z,64.20
2018-09-14T20:54:16.690Z,63.70
2018-09-14T20:56:45.122Z,63.70
2018-09-14T20:59:13.450Z,63.70
2018-09-14T21:01:41.858Z,63.60
2018-09-14T21:04:10.254Z,63.50
2018-09-14T21:06:38.599Z,63.50
2018-09-14T21:09:08.357Z,63.50
2018-09-14T21:11:37.826Z,63.60
2018-09-14T21:14:06.299Z,63.30
2018-09-14T21:16:34.998Z,63.30
2018-09-14T21:19:03.901Z,63.40
2018-09-14T21:21:34.417Z,63.50
2018-09-14T21:24:02.754Z,63.40
2018-09-14T21:26:31.143Z,63.30
2018-09-14T21:28:59.578Z,63.20
2018-09-14T21:31:27.894Z,63.00
2018-09-14T21:33:56.221Z,63.20
2018-09-14T21:36:24.583Z,63.30
2018-09-14T21:38:52.917Z,63.00
2018-09-14T21:41:22.307Z,63.20
2018-09-14T21:43:50.636Z,62.60
2018-09-14T21:46:18.969Z,62.60
2018-09-14T21:48:47.365Z,63.20
2018-09-14T21:51:15.659Z,64.10
2018-09-14T21:53:44.049Z,63.50
2018-09-14T21:56:12.334Z,63.50
2018-09-14T21:58:40.674Z,63.60
2018-09-14T22:01:14.465Z,63.70
2018-09-14T22:03:44.471Z,63.70
2018-09-14T22:06:12.802Z,63.60
2018-09-14T22:08:41.156Z,63.60
2018-09-14T22:11:09.510Z,64.40
2018-09-14T22:13:38.865Z,63.80
2018-09-14T22:16:07.179Z,63.70
2018-09-14T22:18:35.541Z,63.80
2018-09-14T22:21:03.857Z,63.60
2018-09-14T22:23:32.219Z,63.60
2018-09-14T22:26:00.542Z,63.50
2018-09-14T22:28:28.958Z,63.40
2018-09-14T22:30:57.281Z,63.40
2018-09-14T22:33:25.612Z,63.30
2018-09-14T22:35:53.973Z,63.20
2018-09-14T22:38:22.334Z,63.20
2018-09-14T22:40:50.685Z,63.20
2018-09-14T22:43:20.021Z,63.40
2018-09-14T22:45:48.361Z,63.30
2018-09-14T22:48:16.695Z,63.30
2018-09-14T22:50:45.011Z,63.30
2018-09-14T22:53:13.326Z,63.20
2018-09-14T22:55:41.581Z,62.80
2018-09-14T22:58:10.596Z,64.10
2018-09-14T23:00:44.847Z,63.10
2018-09-14T23:03:13.887Z,63.10
2018-09-14T23:05:42.529Z,63.20
2018-09-14T23:08:10.834Z,63.20
2018-09-14T23:10:40.931Z,63.10
2018-09-14T23:13:10.081Z,63.20
2018-09-14T23:15:39.190Z,63.30
2018-09-14T23:18:08.118Z,63.10
2018-09-14T23:20:37.315Z,63.10
2018-09-14T23:23:05.674Z,63.10
2018-09-14T23:25:34.098Z,63.10
2018-09-14T23:28:03.255Z,63.10
2018-09-14T23:30:32.378Z,63.10
2018-09-14T23:33:01.517Z,63.10
2018-09-14T23:35:30.611Z,63.20
2018-09-14T23:37:59.630Z,63.20
2018-09-14T23:40:28.444Z,63.30
2018-09-14T23:42:57.381Z,63.40
2018-09-14T23:45:25.782Z,63.40
2018-09-14T23:47:54.138Z,63.20
2018-09-14T23:50:22.493Z,63.30
2018-09-14T23:52:50.829Z,63.30
2018-09-14T23:55:20.153Z,63.40
2018-09-14T23:57:48.469Z,63.40
